createdAt,value
2023-05-05T00:00:42.296Z,16
2023-05-05T00:03:30.410Z,16
2023-05-05T00:06:18.366Z,16
2023-05-05T00:09:05.947Z,16
2023-05-05T00:11:53.508Z,16
2023-05-05T00:14:41.114Z,16
2023-05-05T00:17:29.002Z,16
2023-05-05T00:20:16.705Z,16
2023-05-05T00:23:04.350Z,16
2023-05-05T00:25:51.926Z,16
2023-05-05T00:28:39.661Z,16.1
2023-05-05T00:31:27.298Z,16.1
2023-05-05T00:34:15.130Z,16.1
2023-05-05T00:37:02.730Z,16
2023-05-05T00:39:50.388Z,16
2023-05-05T00:42:37.904Z,15.9
2023-05-05T00:45:25.427Z,15.8
2023-05-05T00:48:12.829Z,15.6
2023-05-05T00:51:00.411Z,15.5
2023-05-05T00:53:47.951Z,15.3
2023-05-05T00:56:35.503Z,15.2
2023-05-05T00:59:23.081Z,15
2023-05-05T01:02:10.815Z,15
2023-05-05T01:04:58.442Z,14.9
2023-05-05T01:07:46.274Z,14.8
2023-05-05T01:10:47.964Z,14.7
2023-05-05T01:13:35.924Z,14.5
2023-05-05T01:16:23.557Z,14.5
2023-05-05T01:19:11.640Z,14.4
2023-05-05T01:21:59.228Z,14.3
2023-05-05T01:24:47.055Z,14.3
2023-05-05T01:27:34.662Z,14.3
2023-05-05T01:30:22.416Z,14.2
2023-05-05T01:33:10.052Z,14.2
2023-05-05T01:35:57.684Z,14.2
2023-05-05T01:38:45.252Z,14.2
2023-05-05T01:41:32.990Z,14.2
2023-05-05T01:44:20.814Z,14.1
2023-05-05T01:47:08.554Z,14.1
2023-05-05T01:49:56.126Z,14.1
2023-05-05T01:52:43.707Z,14.1
2023-05-05T01:55:31.281Z,14.1
2023-05-05T01:58:18.971Z,14
2023-05-05T02:01:06.649Z,14
2023-05-05T02:03:54.409Z,14
2023-05-05T02:06:42.008Z,14
2023-05-05T02:09:29.687Z,14
2023-05-05T02:12:17.318Z,14
2023-05-05T02:15:05.000Z,14.1
2023-05-05T02:17:52.853Z,14.1
2023-05-05T02:20:40.733Z,14
2023-05-05T02:23:28.393Z,14
2023-05-05T02:26:15.963Z,14
2023-05-05T02:29:03.610Z,14
2023-05-05T02:31:51.274Z,13.9
2023-05-05T02:34:38.997Z,13.7
2023-05-05T02:37:26.865Z,13.7
2023-05-05T02:40:14.386Z,13.6
2023-05-05T02:43:01.983Z,13.5
2023-05-05T02:45:49.650Z,13.5
2023-05-05T02:48:37.384Z,13.5
2023-05-05T02:51:25.029Z,13.5
2023-05-05T02:54:12.752Z,13.5
2023-05-05T02:57:00.316Z,13.5
2023-05-05T02:59:47.932Z,13.5
2023-05-05T03:02:35.560Z,13.5
2023-05-05T03:05:23.457Z,13.5
2023-05-05T03:08:11.116Z,13.4
2023-05-05T03:10:58.823Z,13.3
2023-05-05T03:13:46.562Z,13.3
2023-05-05T03:16:34.122Z,13.2
2023-05-05T03:19:21.918Z,13.1
2023-05-05T03:22:09.536Z,13.1
2023-05-05T03:24:57.291Z,13
2023-05-05T03:27:44.904Z,13
2023-05-05T03:30:32.462Z,12.9
2023-05-05T03:33:20.368Z,12.8
2023-05-05T03:36:08.106Z,12.7
2023-05-05T03:38:55.834Z,12.6
2023-05-05T03:41:43.541Z,12.5
2023-05-05T03:44:31.244Z,12.5
2023-05-05T03:47:18.870Z,12.4
2023-05-05T03:50:06.879Z,12.2
2023-05-05T03:52:54.908Z,12.1
2023-05-05T03:55:42.642Z,12
2023-05-05T03:58:30.442Z,11.9
2023-05-05T04:01:18.208Z,11.9
2023-05-05T04:04:06.235Z,11.9
2023-05-05T04:06:54.232Z,11.7
2023-05-05T04:09:41.862Z,11.7
2023-05-05T04:12:29.559Z,11.7
2023-05-05T04:15:17.248Z,11.9
2023-05-05T04:18:05.070Z,11.9
2023-05-05T04:20:52.739Z,12
2023-05-05T04:23:40.371Z,12.2
2023-05-05T04:26:28.049Z,12.3
2023-05-05T04:29:15.779Z,12.5
2023-05-05T04:32:03.504Z,12.6
2023-05-05T04:34:51.248Z,12.8
2023-05-05T04:37:38.930Z,12.9
2023-05-05T04:40:26.711Z,13
2023-05-05T04:43:14.293Z,13.1
2023-05-05T04:46:02.018Z,13.1
2023-05-05T04:48:49.876Z,13.1
2023-05-05T04:51:37.618Z,13.1
2023-05-05T04:54:25.272Z,13.1
2023-05-05T04:57:13.160Z,13.2
2023-05-05T05:00:00.730Z,13.3
2023-05-05T05:02:48.622Z,13.3
2023-05-05T05:05:36.372Z,13.3
2023-05-05T05:08:24.035Z,13.3
2023-05-05T05:11:11.658Z,13.4
2023-05-05T05:13:59.318Z,13.5
2023-05-05T05:16:46.984Z,13.5
2023-05-05T05:19:34.895Z,13.6
2023-05-05T05:22:22.618Z,13.7
2023-05-05T05:25:10.370Z,13.8
2023-05-05T05:28:08.693Z,13.9
2023-05-05T05:30:58.581Z,14.1
2023-05-05T05:33:46.234Z,14.6
2023-05-05T05:36:34.046Z,15
2023-05-05T05:39:21.706Z,15.5
2023-05-05T05:42:09.368Z,16.1
2023-05-05T05:44:57.137Z,16.7
2023-05-05T05:47:44.844Z,17.3
2023-05-05T05:50:32.501Z,18.1
2023-05-05T05:53:20.235Z,19.1
2023-05-05T05:56:07.890Z,19.9
2023-05-05T05:58:55.644Z,20.8
2023-05-05T06:01:43.271Z,21.5
2023-05-05T06:04:31.252Z,21.9
2023-05-05T06:07:18.994Z,21.9
2023-05-05T06:10:18.941Z,21.9
2023-05-05T06:13:15.738Z,21.5
2023-05-05T06:16:03.827Z,21.5
2023-05-05T06:18:51.678Z,21.9
2023-05-05T06:21:39.360Z,22
2023-05-05T06:24:26.937Z,21.9
2023-05-05T06:27:14.620Z,22
2023-05-05T06:30:02.329Z,22.3
2023-05-05T06:32:50.107Z,22.5
2023-05-05T06:35:37.762Z,22.6
2023-05-05T06:38:25.407Z,23
2023-05-05T06:41:12.977Z,23.4
2023-05-05T06:44:00.705Z,23.5
2023-05-05T06:46:48.525Z,23.2
2023-05-05T06:49:36.376Z,23.2
2023-05-05T06:52:23.848Z,23.2
2023-05-05T06:55:11.484Z,23.1
2023-05-05T06:57:58.990Z,23
2023-05-05T07:00:46.903Z,23
2023-05-05T07:03:34.912Z,22.7
2023-05-05T07:06:22.828Z,22.6
2023-05-05T07:09:10.399Z,22.5
2023-05-05T07:11:58.138Z,22.1
2023-05-05T07:14:45.766Z,22
2023-05-05T07:17:33.583Z,21.9
2023-05-05T07:20:21.663Z,21.8
2023-05-05T07:23:09.344Z,22
2023-05-05T07:25:56.875Z,21.9
2023-05-05T07:28:44.576Z,21.5
2023-05-05T07:31:32.185Z,21.5
2023-05-05T07:34:20.285Z,21.6
2023-05-05T07:37:08.392Z,21.9
2023-05-05T07:39:56.117Z,22.3
2023-05-05T07:42:43.696Z,22.6
2023-05-05T07:45:31.377Z,22.7
2023-05-05T07:48:19.035Z,22.7
2023-05-05T07:51:07.053Z,22.9
2023-05-05T07:53:54.898Z,23.1
2023-05-05T07:56:42.558Z,23.8
2023-05-05T07:59:30.240Z,24.2
2023-05-05T08:02:17.954Z,24.7
2023-05-05T08:05:05.831Z,25.2
2023-05-05T08:07:54.462Z,25
2023-05-05T08:10:42.316Z,24.7
2023-05-05T08:13:30.081Z,24.9
2023-05-05T08:16:17.755Z,25
2023-05-05T08:19:12.050Z,25
2023-05-05T08:22:15.914Z,25
2023-05-05T08:25:03.640Z,25.2
2023-05-05T08:27:51.521Z,25.5
2023-05-05T08:30:39.260Z,25.6
2023-05-05T08:33:26.912Z,26.3
2023-05-05T08:36:14.446Z,26.9
2023-05-05T08:39:02.046Z,27.1
2023-05-05T08:41:49.724Z,27
2023-05-05T08:44:37.500Z,27.2
2023-05-05T08:47:25.409Z,28
2023-05-05T08:50:13.072Z,28.5
2023-05-05T08:53:00.943Z,28.5
2023-05-05T08:55:48.689Z,28.6
2023-05-05T08:58:36.368Z,28.7
2023-05-05T09:01:24.202Z,29.2
2023-05-05T09:04:11.986Z,29.1
2023-05-05T09:06:59.501Z,28.9
2023-05-05T09:09:47.246Z,28.8
2023-05-05T09:12:34.709Z,29
2023-05-05T09:15:22.550Z,29.3
2023-05-05T09:18:10.631Z,29.5
2023-05-05T09:20:59.526Z,29.9
2023-05-05T09:23:47.241Z,29.5
2023-05-05T09:26:34.922Z,29.6
2023-05-05T09:29:22.347Z,29.3
2023-05-05T09:32:10.029Z,29.2
2023-05-05T09:34:57.844Z,29
2023-05-05T09:37:45.448Z,28.9
2023-05-05T09:40:32.865Z,29.1
2023-05-05T09:43:20.421Z,29.7
2023-05-05T09:46:07.958Z,29.5
2023-05-05T09:48:56.114Z,29.2
2023-05-05T09:51:44.017Z,28.8
2023-05-05T09:54:31.626Z,28.5
2023-05-05T09:57:19.100Z,28
2023-05-05T10:00:07.065Z,27.4
2023-05-05T10:02:55.293Z,27.2
2023-05-05T10:05:43.174Z,27.7
2023-05-05T10:08:30.993Z,28.6
2023-05-05T10:11:18.683Z,29.4
2023-05-05T10:14:06.316Z,29.7
2023-05-05T10:16:55.631Z,30
2023-05-05T10:19:43.157Z,29.8
2023-05-05T10:22:31.047Z,29.4
2023-05-05T10:25:18.872Z,28.7
2023-05-05T10:28:06.562Z,27.7
2023-05-05T10:30:54.350Z,27.2
2023-05-05T10:33:58.776Z,28
2023-05-05T10:36:46.654Z,28.2
2023-05-05T10:39:34.540Z,27.7
2023-05-05T10:42:22.372Z,27.5
2023-05-05T10:45:10.074Z,27.1
2023-05-05T10:47:57.843Z,26.2
2023-05-05T10:50:45.564Z,25.3
2023-05-05T10:53:33.511Z,24.6
2023-05-05T10:56:21.093Z,24.1
2023-05-05T10:59:23.937Z,23.9
2023-05-05T11:02:11.555Z,23.9
2023-05-05T11:04:59.191Z,24.2
2023-05-05T11:07:46.771Z,24.2
2023-05-05T11:10:34.685Z,24.3
2023-05-05T11:13:22.891Z,24.2
2023-05-05T11:16:11.226Z,24.2
2023-05-05T11:18:59.073Z,24.2
2023-05-05T11:21:46.601Z,24.4
2023-05-05T11:24:34.210Z,24.4
2023-05-05T11:27:21.996Z,24.2
2023-05-05T11:30:10.075Z,23.8
2023-05-05T11:32:58.670Z,23.4
2023-05-05T11:35:46.332Z,23
2023-05-05T11:38:33.849Z,22.7
2023-05-05T11:41:21.439Z,22.3
2023-05-05T11:44:09.076Z,22.1
2023-05-05T11:46:57.160Z,21.9
2023-05-05T11:49:44.892Z,21.6
2023-05-05T11:52:32.568Z,21.5
2023-05-05T11:55:20.250Z,21.5
2023-05-05T11:58:07.819Z,21.5
2023-05-05T12:00:55.576Z,21.7
2023-05-05T12:03:43.704Z,21.8
2023-05-05T12:06:31.747Z,21.9
2023-05-05T12:09:19.382Z,22
2023-05-05T12:12:06.917Z,22
2023-05-05T12:14:54.682Z,22
2023-05-05T12:17:42.300Z,21.9
2023-05-05T12:20:30.456Z,21.9
2023-05-05T12:23:18.233Z,21.5
2023-05-05T12:26:05.819Z,21.3
2023-05-05T12:28:53.448Z,21.3
2023-05-05T12:31:41.464Z,21.2
2023-05-05T12:34:29.242Z,21.2
2023-05-05T12:37:17.107Z,21.3
2023-05-05T12:40:05.061Z,21.5
2023-05-05T12:42:52.984Z,21.9
2023-05-05T12:45:40.582Z,22.1
2023-05-05T12:48:28.318Z,22.5
2023-05-05T12:51:15.974Z,22.9
2023-05-05T12:54:03.707Z,23.1
2023-05-05T12:56:51.592Z,23.2
2023-05-05T12:59:39.483Z,23.2
2023-05-05T13:02:27.199Z,22.9
2023-05-05T13:05:14.994Z,22.6
2023-05-05T13:08:02.569Z,22.3
2023-05-05T13:10:50.562Z,22
2023-05-05T13:13:38.552Z,22
2023-05-05T13:16:26.368Z,22
2023-05-05T13:19:14.125Z,21.8
2023-05-05T13:22:01.799Z,21.7
2023-05-05T13:24:59.694Z,21.6
2023-05-05T13:27:47.447Z,21.5
2023-05-05T13:30:35.256Z,21.3
2023-05-05T13:33:23.063Z,21.1
2023-05-05T13:36:10.595Z,21.3
2023-05-05T13:38:58.150Z,21.2
2023-05-05T13:41:45.664Z,21.1
2023-05-05T13:44:33.586Z,21
2023-05-05T13:47:21.612Z,21.1
2023-05-05T13:50:09.879Z,21.1
2023-05-05T13:53:00.421Z,21.1
2023-05-05T13:55:48.096Z,21
2023-05-05T13:58:37.575Z,21
2023-05-05T14:01:25.608Z,20.9
2023-05-05T14:04:13.480Z,20.7
2023-05-05T14:07:01.379Z,20.6
2023-05-05T14:09:49.113Z,20.5
2023-05-05T14:12:36.847Z,20.3
2023-05-05T14:15:24.627Z,20.1
2023-05-05T14:18:12.311Z,19.9
2023-05-05T14:21:00.150Z,19.5
2023-05-05T14:23:47.772Z,19.1
2023-05-05T14:26:35.399Z,18.5
2023-05-05T14:29:23.244Z,18
2023-05-05T14:32:10.933Z,17.5
2023-05-05T14:34:59.152Z,17
2023-05-05T14:37:46.998Z,16.6
2023-05-05T14:40:34.833Z,16.2
2023-05-05T14:43:22.425Z,15.6
2023-05-05T14:46:10.224Z,15
2023-05-05T14:48:57.975Z,14.4
2023-05-05T14:51:45.867Z,14
2023-05-05T14:54:42.476Z,13.8
2023-05-05T14:57:30.081Z,13.7
2023-05-05T15:00:17.657Z,13.7
2023-05-05T15:03:05.601Z,13.8
2023-05-05T15:05:53.633Z,14
2023-05-05T15:08:41.473Z,14.2
2023-05-05T15:11:29.356Z,14.4
2023-05-05T15:14:17.021Z,14.6
2023-05-05T15:17:04.774Z,14.8
2023-05-05T15:19:52.500Z,15
2023-05-05T15:22:40.182Z,15
2023-05-05T15:25:28.120Z,15
2023-05-05T15:28:15.993Z,15
2023-05-05T15:31:03.630Z,15.1
2023-05-05T15:33:51.196Z,15
2023-05-05T15:36:38.890Z,14.9
2023-05-05T15:39:26.422Z,14.8
2023-05-05T15:42:14.200Z,14.6
2023-05-05T15:45:02.083Z,14.4
2023-05-05T15:47:49.978Z,14.1
2023-05-05T15:50:37.653Z,13.9
2023-05-05T15:53:25.305Z,13.7
2023-05-05T15:56:12.917Z,13.6
2023-05-05T15:59:00.678Z,13.5
2023-05-05T16:01:48.481Z,13.5
2023-05-05T16:04:36.290Z,13.5
2023-05-05T16:07:23.951Z,13.6
2023-05-05T16:10:11.607Z,13.7
2023-05-05T16:12:59.261Z,13.7
2023-05-05T16:15:47.215Z,13.8
2023-05-05T16:18:35.453Z,13.9
2023-05-05T16:21:23.062Z,13.9
2023-05-05T16:24:10.649Z,13.9
2023-05-05T16:26:58.427Z,13.9
2023-05-05T16:29:46.042Z,13.9
2023-05-05T16:32:34.070Z,13.9
2023-05-05T16:35:22.026Z,13.9
2023-05-05T16:38:09.744Z,13.9
2023-05-05T16:40:57.679Z,13.9
2023-05-05T16:43:45.637Z,13.9
2023-05-05T16:46:33.828Z,13.9
2023-05-05T16:49:21.818Z,13.7
2023-05-05T16:52:09.504Z,13.6
2023-05-05T16:54:57.380Z,13.5
2023-05-05T16:57:45.065Z,13.3
2023-05-05T17:00:32.700Z,13.3
2023-05-05T17:03:20.246Z,13.2
2023-05-05T17:06:08.056Z,13.1
2023-05-05T17:08:55.968Z,13.1
2023-05-05T17:11:43.725Z,13.1
2023-05-05T17:14:31.430Z,13.1
2023-05-05T17:17:19.291Z,13.1
2023-05-05T17:20:06.942Z,13
2023-05-05T17:22:54.600Z,13
2023-05-05T17:25:42.525Z,13
2023-05-05T17:28:30.240Z,12.9
2023-05-05T17:31:17.975Z,12.9
2023-05-05T17:34:05.903Z,12.8
2023-05-05T17:36:53.515Z,12.8
2023-05-05T17:39:41.400Z,12.8
2023-05-05T17:42:29.281Z,12.8
2023-05-05T17:45:17.026Z,12.7
2023-05-05T17:48:04.784Z,12.7
2023-05-05T17:50:52.633Z,12.7
2023-05-05T17:53:40.312Z,12.6
2023-05-05T17:56:28.059Z,12.6
2023-05-05T17:59:15.849Z,12.7
2023-05-05T18:02:03.750Z,12.7
2023-05-05T18:04:51.502Z,12.7
2023-05-05T18:07:39.241Z,12.7
2023-05-05T18:10:26.872Z,12.6
2023-05-05T18:13:14.772Z,12.5
2023-05-05T18:16:02.892Z,12.5
2023-05-05T18:18:50.704Z,12.5
2023-05-05T18:21:38.565Z,12.5
2023-05-05T18:24:39.873Z,12.5
2023-05-05T18:27:27.551Z,12.4
2023-05-05T18:30:15.484Z,12.3
2023-05-05T18:33:03.471Z,12.2
2023-05-05T18:35:51.154Z,12.1
2023-05-05T18:38:38.784Z,12
2023-05-05T18:41:26.435Z,11.9
2023-05-05T18:44:14.092Z,11.9
2023-05-05T18:47:02.170Z,11.8
2023-05-05T18:49:50.060Z,11.7
2023-05-05T18:52:37.902Z,11.7
2023-05-05T18:55:25.710Z,11.7
2023-05-05T18:58:13.435Z,11.7
2023-05-05T19:01:01.324Z,11.7
2023-05-05T19:03:49.363Z,11.5
2023-05-05T19:06:37.504Z,11.5
2023-05-05T19:09:25.306Z,11.5
2023-05-05T19:12:13.104Z,11.4
2023-05-05T19:15:00.885Z,11.4
2023-05-05T19:17:48.475Z,11.3
2023-05-05T19:20:36.197Z,11.1
2023-05-05T19:23:24.109Z,11.1
2023-05-05T19:26:11.915Z,11
2023-05-05T19:28:59.605Z,10.9
2023-05-05T19:31:47.367Z,10.9
2023-05-05T19:34:35.156Z,10.8
2023-05-05T19:37:23.032Z,10.8
2023-05-05T19:40:11.175Z,10.7
2023-05-05T19:42:59.695Z,10.7
2023-05-05T19:45:47.334Z,10.8
2023-05-05T19:48:35.204Z,10.8
2023-05-05T19:51:22.897Z,10.8
2023-05-05T19:54:10.611Z,10.7
2023-05-05T19:56:58.495Z,10.7
2023-05-05T19:59:46.229Z,10.6
2023-05-05T20:02:36.233Z,10.5
2023-05-05T20:05:24.948Z,10.4
2023-05-05T20:08:12.622Z,10.3
2023-05-05T20:11:00.438Z,10.2
2023-05-05T20:13:48.356Z,10.1
2023-05-05T20:16:36.261Z,10.1
2023-05-05T20:19:24.360Z,10
2023-05-05T20:22:12.083Z,10
2023-05-05T20:24:59.687Z,10
2023-05-05T20:27:47.552Z,10
2023-05-05T20:30:36.014Z,10
2023-05-05T20:33:24.302Z,9.9
2023-05-05T20:36:11.976Z,10
2023-05-05T20:38:59.812Z,9.9
2023-05-05T20:41:47.545Z,9.9
2023-05-05T20:44:35.281Z,9.8
2023-05-05T20:47:23.366Z,9.8
2023-05-05T20:50:11.563Z,9.7
2023-05-05T20:52:59.659Z,9.7
2023-05-05T20:55:47.424Z,9.7
2023-05-05T20:58:35.222Z,9.7
2023-05-05T21:01:23.289Z,9.7
2023-05-05T21:04:11.373Z,9.7
2023-05-05T21:06:59.182Z,9.6
2023-05-05T21:09:46.886Z,9.6
2023-05-05T21:12:34.721Z,9.5
2023-05-05T21:15:22.476Z,9.5
2023-05-05T21:18:10.418Z,9.5
2023-05-05T21:20:58.358Z,9.4
2023-05-05T21:23:46.236Z,9.5
2023-05-05T21:26:33.903Z,9.4
2023-05-05T21:29:21.749Z,9.3
2023-05-05T21:32:09.494Z,9.3
2023-05-05T21:34:57.571Z,9.4
2023-05-05T21:37:45.331Z,9.4
2023-05-05T21:40:33.187Z,9.4
2023-05-05T21:43:20.930Z,9.4
2023-05-05T21:46:08.798Z,9.4
2023-05-05T21:48:56.852Z,9.4
2023-05-05T21:51:44.787Z,9.4
2023-05-05T21:54:32.564Z,9.4
2023-05-05T21:57:20.397Z,9.5
2023-05-05T22:00:08.223Z,9.6
2023-05-05T22:02:56.606Z,9.6
2023-05-05T22:05:44.590Z,9.6
2023-05-05T22:08:32.564Z,9.5
2023-05-05T22:11:20.806Z,9.4
2023-05-05T22:14:08.486Z,9.3
2023-05-05T22:16:56.446Z,9.2
2023-05-05T22:19:44.229Z,9.2
2023-05-05T22:22:32.001Z,9.2
2023-05-05T22:25:19.878Z,9.2
2023-05-05T22:28:07.735Z,9.2
2023-05-05T22:30:55.596Z,9.2
2023-05-05T22:33:43.278Z,9.2
2023-05-05T22:36:31.108Z,9.2
2023-05-05T22:39:18.901Z,9.2
2023-05-05T22:42:06.931Z,9.3
2023-05-05T22:44:54.748Z,9.3
2023-05-05T22:47:42.726Z,9.2
2023-05-05T22:50:30.747Z,9.3
2023-05-05T22:53:18.581Z,9.4
2023-05-05T22:56:06.519Z,9.4
2023-05-05T22:58:54.348Z,9.4
2023-05-05T23:01:42.466Z,9.4
2023-05-05T23:04:30.324Z,9.4
2023-05-05T23:07:18.134Z,9.4
2023-05-05T23:10:05.843Z,9.2
2023-05-05T23:12:53.689Z,9.1
2023-05-05T23:15:41.610Z,9
2023-05-05T23:18:29.474Z,9
2023-05-05T23:21:17.288Z,8.9
2023-05-05T23:24:05.149Z,8.8
2023-05-05T23:26:53.115Z,8.8
2023-05-05T23:29:40.837Z,8.8
2023-05-05T23:32:28.990Z,8.8
2023-05-05T23:35:16.979Z,8.8
2023-05-05T23:38:04.906Z,8.8
2023-05-05T23:40:52.648Z,8.7
2023-05-05T23:43:40.526Z,8.6
2023-05-05T23:46:28.386Z,8.6
2023-05-05T23:49:16.506Z,8.7
2023-05-05T23:52:04.427Z,8.8
2023-05-05T23:54:52.151Z,8.9
2023-05-05T23:57:39.881Z,9
